sensor_id;sensor_type;location;lat;lon;timestamp;pressure;altitude;pressure_sealevel;temperature;humidity
49949;BME280;35840;45.982;8.890;2023-06-22T00:01:19;98742.78;;;23.62;64.50
49949;BME280;35840;45.982;8.890;2023-06-22T00:03:48;98749.50;;;23.65;64.10
49949;BME280;35840;45.982;8.890;2023-06-22T00:06:15;98747.03;;;23.63;64.39
49949;BME280;35840;45.982;8.890;2023-06-22T00:08:42;98760.16;;;23.63;64.87
49949;BME280;35840;45.982;8.890;2023-06-22T00:11:08;98750.66;;;23.54;64.73
49949;BME280;35840;45.982;8.890;2023-06-22T00:13:35;98754.75;;;23.57;64.36
49949;BME280;35840;45.982;8.890;2023-06-22T00:16:02;98753.59;;;23.59;64.60
49949;BME280;35840;45.982;8.890;2023-06-22T00:18:29;98753.28;;;23.54;65.10
49949;BME280;35840;45.982;8.890;2023-06-22T00:20:57;98748.53;;;23.58;65.12
49949;BME280;35840;45.982;8.890;2023-06-22T00:23:25;98750.81;;;23.52;65.16
49949;BME280;35840;45.982;8.890;2023-06-22T00:25:52;98745.91;;;23.49;65.04
49949;BME280;35840;45.982;8.890;2023-06-22T00:28:19;98752.81;;;23.50;64.47
49949;BME280;35840;45.982;8.890;2023-06-22T00:30:48;98750.31;;;23.49;64.55
49949;BME280;35840;45.982;8.890;2023-06-22T00:33:15;98742.31;;;23.42;64.88
49949;BME280;35840;45.982;8.890;2023-06-22T00:35:43;98741.97;;;23.45;65.30
49949;BME280;35840;45.982;8.890;2023-06-22T00:38:10;98739.69;;;23.42;65.77
49949;BME280;35840;45.982;8.890;2023-06-22T00:40:37;98745.25;;;23.47;66.21
49949;BME280;35840;45.982;8.890;2023-06-22T00:43:04;98743.78;;;23.45;66.55
49949;BME280;35840;45.982;8.890;2023-06-22T00:45:31;98745.91;;;23.49;66.19
49949;BME280;35840;45.982;8.890;2023-06-22T00:47:59;98748.88;;;23.46;65.77
49949;BME280;35840;45.982;8.890;2023-06-22T00:50:28;98752.81;;;23.34;65.55
49949;BME280;35840;45.982;8.890;2023-06-22T00:53:07;98753.31;;;23.29;65.87
49949;BME280;35840;45.982;8.890;2023-06-22T00:55:37;98760.84;;;23.32;66.16
49949;BME280;35840;45.982;8.890;2023-06-22T00:58:06;98758.72;;;23.28;66.04
49949;BME280;35840;45.982;8.890;2023-06-22T01:00:38;98758.06;;;23.26;65.98
49949;BME280;35840;45.982;8.890;2023-06-22T01:03:06;98754.13;;;23.30;66.08
49949;BME280;35840;45.982;8.890;2023-06-22T01:05:37;98751.00;;;23.26;66.05
49949;BME280;35840;45.982;8.890;2023-06-22T01:08:19;98767.75;;;23.33;66.08
49949;BME280;35840;45.982;8.890;2023-06-22T01:11:03;98769.53;;;23.33;66.94
49949;BME280;35840;45.982;8.890;2023-06-22T01:16:37;98758.72;;;23.28;67.01
49949;BME280;35840;45.982;8.890;2023-06-22T01:22:03;98764.97;;;23.27;66.89
49949;BME280;35840;45.982;8.890;2023-06-22T01:30:31;98765.59;;;23.29;68.12
49949;BME280;35840;45.982;8.890;2023-06-22T01:33:03;98770.03;;;23.28;67.96
49949;BME280;35840;45.982;8.890;2023-06-22T01:35:32;98767.75;;;23.25;67.68
49949;BME280;35840;45.982;8.890;2023-06-22T01:38:00;98775.78;;;23.24;68.11
49949;BME280;35840;45.982;8.890;2023-06-22T01:40:28;98771.50;;;23.23;67.70
49949;BME280;35840;45.982;8.890;2023-06-22T01:42:56;98760.84;;;23.16;67.67
49949;BME280;35840;45.982;8.890;2023-06-22T01:45:24;98770.50;;;23.32;67.28
49949;BME280;35840;45.982;8.890;2023-06-22T01:47:51;98761.19;;;23.21;67.76
49949;BME280;35840;45.982;8.890;2023-06-22T01:50:18;98765.75;;;23.19;67.95
49949;BME280;35840;45.982;8.890;2023-06-22T01:52:45;98755.75;;;23.14;67.50
49949;BME280;35840;45.982;8.890;2023-06-22T01:55:12;98761.81;;;23.23;67.66
49949;BME280;35840;45.982;8.890;2023-06-22T01:57:39;98758.06;;;23.17;67.30
49949;BME280;35840;45.982;8.890;2023-06-22T02:00:11;98755.75;;;23.14;66.97
49949;BME280;35840;45.982;8.890;2023-06-22T02:02:48;98752.63;;;23.11;66.14
49949;BME280;35840;45.982;8.890;2023-06-22T02:05:18;98756.09;;;23.11;65.92
49949;BME280;35840;45.982;8.890;2023-06-22T02:07:51;98758.56;;;23.13;65.92
49949;BME280;35840;45.982;8.890;2023-06-22T02:10:20;98761.97;;;23.05;65.92
49949;BME280;35840;45.982;8.890;2023-06-22T02:12:50;98756.56;;;22.98;66.52
49949;BME280;35840;45.982;8.890;2023-06-22T02:15:18;98745.56;;;23.03;67.08
49949;BME280;35840;45.982;8.890;2023-06-22T02:17:47;98742.59;;;22.98;67.45
49949;BME280;35840;45.982;8.890;2023-06-22T02:20:14;98751.13;;;22.92;67.49
49949;BME280;35840;45.982;8.890;2023-06-22T02:22:41;98750.97;;;22.93;67.48
49949;BME280;35840;45.982;8.890;2023-06-22T02:25:10;98750.00;;;22.94;67.63
49949;BME280;35840;45.982;8.890;2023-06-22T02:27:36;98748.69;;;22.90;67.71
49949;BME280;35840;45.982;8.890;2023-06-22T02:30:10;98734.09;;;22.87;67.74
49949;BME280;35840;45.982;8.890;2023-06-22T02:32:38;98730.97;;;22.92;67.67
49949;BME280;35840;45.982;8.890;2023-06-22T02:35:09;98734.91;;;22.96;67.43
49949;BME280;35840;45.982;8.890;2023-06-22T02:37:37;98735.41;;;23.00;67.67
49949;BME280;35840;45.982;8.890;2023-06-22T02:40:09;98733.94;;;22.97;67.95
49949;BME280;35840;45.982;8.890;2023-06-22T02:42:39;98720.97;;;22.87;68.17
49949;BME280;35840;45.982;8.890;2023-06-22T02:45:06;98713.28;;;22.86;68.23
49949;BME280;35840;45.982;8.890;2023-06-22T02:47:33;98716.06;;;22.84;68.43
49949;BME280;35840;45.982;8.890;2023-06-22T02:50:00;98719.84;;;22.90;67.95
49949;BME280;35840;45.982;8.890;2023-06-22T02:52:30;98725.88;;;22.74;68.54
49949;BME280;35840;45.982;8.890;2023-06-22T02:54:57;98710.50;;;22.71;68.49
49949;BME280;35840;45.982;8.890;2023-06-22T02:57:24;98698.69;;;22.67;68.85
49949;BME280;35840;45.982;8.890;2023-06-22T02:59:51;98701.94;;;22.61;69.99
49949;BME280;35840;45.982;8.890;2023-06-22T03:02:18;98697.84;;;22.58;69.64
49949;BME280;35840;45.982;8.890;2023-06-22T03:04:48;98664.44;;;22.68;69.29
49949;BME280;35840;45.982;8.890;2023-06-22T03:07:15;98654.91;;;22.51;69.26
49949;BME280;35840;45.982;8.890;2023-06-22T03:09:45;98679.81;;;22.55;69.51
49949;BME280;35840;45.982;8.890;2023-06-22T03:12:12;98719.34;;;22.19;70.69
49949;BME280;35840;45.982;8.890;2023-06-22T03:14:49;98747.91;;;22.04;70.00
49949;BME280;35840;45.982;8.890;2023-06-22T03:17:16;98746.97;;;22.13;69.25
49949;BME280;35840;45.982;8.890;2023-06-22T03:19:43;98731.63;;;22.18;69.51
49949;BME280;35840;45.982;8.890;2023-06-22T03:22:10;98738.19;;;22.31;69.55
49949;BME280;35840;45.982;8.890;2023-06-22T03:24:39;98724.50;;;22.37;69.98
49949;BME280;35840;45.982;8.890;2023-06-22T03:27:06;98725.81;;;22.49;70.16
49949;BME280;35840;45.982;8.890;2023-06-22T03:29:34;98722.41;;;22.57;70.13
49949;BME280;35840;45.982;8.890;2023-06-22T03:32:01;98723.06;;;22.59;70.34
49949;BME280;35840;45.982;8.890;2023-06-22T03:34:28;98709.19;;;22.67;70.12
49949;BME280;35840;45.982;8.890;2023-06-22T03:36:54;98703.75;;;22.60;70.99
49949;BME280;35840;45.982;8.890;2023-06-22T03:39:22;98713.44;;;22.60;71.19
49949;BME280;35840;45.982;8.890;2023-06-22T03:41:48;98718.81;;;22.58;70.71
49949;BME280;35840;45.982;8.890;2023-06-22T03:44:17;98735.38;;;22.59;69.54
49949;BME280;35840;45.982;8.890;2023-06-22T03:46:43;98753.38;;;22.62;69.09
49949;BME280;35840;45.982;8.890;2023-06-22T03:49:10;98770.75;;;22.63;69.44
49949;BME280;35840;45.982;8.890;2023-06-22T03:51:37;98776.97;;;22.62;69.74
49949;BME280;35840;45.982;8.890;2023-06-22T03:54:04;98771.56;;;22.63;69.87
49949;BME280;35840;45.982;8.890;2023-06-22T03:56:31;98766.66;;;22.68;70.05
49949;BME280;35840;45.982;8.890;2023-06-22T03:58:57;98759.88;;;22.49;70.44
49949;BME280;35840;45.982;8.890;2023-06-22T04:01:24;98747.94;;;22.39;70.82
49949;BME280;35840;45.982;8.890;2023-06-22T04:03:51;98748.59;;;22.49;70.86
49949;BME280;35840;45.982;8.890;2023-06-22T04:06:18;98747.16;;;22.55;70.68
49949;BME280;35840;45.982;8.890;2023-06-22T04:08:45;98732.75;;;22.59;70.48
49949;BME280;35840;45.982;8.890;2023-06-22T04:11:14;98721.06;;;22.45;71.38
49949;BME280;35840;45.982;8.890;2023-06-22T04:13:41;98702.81;;;22.27;72.19
49949;BME280;35840;45.982;8.890;2023-06-22T04:16:08;98714.41;;;22.16;72.68
49949;BME280;35840;45.982;8.890;2023-06-22T04:18:35;98726.69;;;22.15;73.11
49949;BME280;35840;45.982;8.890;2023-06-22T04:21:02;98745.41;;;22.29;73.45
49949;BME280;35840;45.982;8.890;2023-06-22T04:23:29;98727.41;;;22.34;73.53
49949;BME280;35840;45.982;8.890;2023-06-22T04:25:55;98723.78;;;22.27;71.97
49949;BME280;35840;45.982;8.890;2023-06-22T04:28:23;98742.47;;;22.32;71.75
49949;BME280;35840;45.982;8.890;2023-06-22T04:30:53;98747.59;;;22.42;72.16
49949;BME280;35840;45.982;8.890;2023-06-22T04:33:24;98746.16;;;22.47;72.37
49949;BME280;35840;45.982;8.890;2023-06-22T04:35:51;98747.63;;;22.50;72.22
49949;BME280;35840;45.982;8.890;2023-06-22T04:38:18;98748.78;;;22.56;71.76
49949;BME280;35840;45.982;8.890;2023-06-22T04:40:44;98737.66;;;22.62;71.40
49949;BME280;35840;45.982;8.890;2023-06-22T04:43:11;98708.19;;;22.60;71.24
49949;BME280;35840;45.982;8.890;2023-06-22T04:45:38;98708.50;;;22.65;71.57
49949;BME280;35840;45.982;8.890;2023-06-22T04:48:05;98715.88;;;22.69;71.36
49949;BME280;35840;45.982;8.890;2023-06-22T04:50:32;98718.66;;;22.76;72.19
49949;BME280;35840;45.982;8.890;2023-06-22T04:52:59;98727.03;;;22.80;71.57
49949;BME280;35840;45.982;8.890;2023-06-22T04:55:26;98722.94;;;22.69;70.98
49949;BME280;35840;45.982;8.890;2023-06-22T04:57:53;98702.28;;;22.66;70.29
49949;BME280;35840;45.982;8.890;2023-06-22T05:00:20;98692.59;;;22.58;69.49
49949;BME280;35840;45.982;8.890;2023-06-22T05:02:49;98715.22;;;22.67;69.09
49949;BME280;35840;45.982;8.890;2023-06-22T05:05:16;98735.38;;;22.59;68.32
49949;BME280;35840;45.982;8.890;2023-06-22T05:07:45;98726.66;;;22.58;68.94
49949;BME280;35840;45.982;8.890;2023-06-22T05:10:14;98736.34;;;22.58;68.85
49949;BME280;35840;45.982;8.890;2023-06-22T05:12:41;98721.25;;;22.51;69.31
49949;BME280;35840;45.982;8.890;2023-06-22T05:15:09;98734.38;;;22.51;69.70
49949;BME280;35840;45.982;8.890;2023-06-22T05:17:36;98736.16;;;22.59;70.40
49949;BME280;35840;45.982;8.890;2023-06-22T05:20:10;98734.38;;;22.60;70.58
49949;BME280;35840;45.982;8.890;2023-06-22T05:22:38;98730.28;;;22.57;71.67
49949;BME280;35840;45.982;8.890;2023-06-22T05:25:08;98737.84;;;22.68;71.86
49949;BME280;35840;45.982;8.890;2023-06-22T05:27:36;98748.16;;;22.70;72.14
49949;BME280;35840;45.982;8.890;2023-06-22T05:30:06;98740.78;;;22.65;71.48
49949;BME280;35840;45.982;8.890;2023-06-22T05:32:35;98730.94;;;22.59;71.63
49949;BME280;35840;45.982;8.890;2023-06-22T05:35:03;98734.53;;;22.66;71.77
49949;BME280;35840;45.982;8.890;2023-06-22T05:37:30;98731.31;;;22.73;70.15
49949;BME280;35840;45.982;8.890;2023-06-22T05:39:56;98725.56;;;22.77;69.24
49949;BME280;35840;45.982;8.890;2023-06-22T05:42:23;98723.44;;;22.73;67.38
49949;BME280;35840;45.982;8.890;2023-06-22T05:44:52;98726.22;;;22.71;67.01
49949;BME280;35840;45.982;8.890;2023-06-22T05:47:19;98735.38;;;22.83;66.86
49949;BME280;35840;45.982;8.890;2023-06-22T05:49:47;98739.50;;;22.86;67.75
49949;BME280;35840;45.982;8.890;2023-06-22T05:52:13;98740.97;;;22.89;68.03
49949;BME280;35840;45.982;8.890;2023-06-22T05:54:40;98746.88;;;22.91;69.02
49949;BME280;35840;45.982;8.890;2023-06-22T05:57:08;98746.69;;;22.92;68.81
49949;BME280;35840;45.982;8.890;2023-06-22T05:59:35;98752.13;;;23.07;67.82
49949;BME280;35840;45.982;8.890;2023-06-22T06:02:01;98750.16;;;23.09;67.85
49949;BME280;35840;45.982;8.890;2023-06-22T06:04:28;98753.78;;;23.08;67.56
49949;BME280;35840;45.982;8.890;2023-06-22T06:06:55;98755.13;;;23.12;68.08
49949;BME280;35840;45.982;8.890;2023-06-22T06:09:22;98757.59;;;23.14;68.01
49949;BME280;35840;45.982;8.890;2023-06-22T06:11:48;98764.59;;;23.13;68.28
49949;BME280;35840;45.982;8.890;2023-06-22T06:14:15;98765.44;;;23.14;68.85
49949;BME280;35840;45.982;8.890;2023-06-22T06:16:43;98755.41;;;23.09;70.41
49949;BME280;35840;45.982;8.890;2023-06-22T06:19:10;98750.84;;;23.11;70.11
49949;BME280;35840;45.982;8.890;2023-06-22T06:21:37;98746.72;;;23.09;69.57
49949;BME280;35840;45.982;8.890;2023-06-22T06:24:04;98740.50;;;23.10;69.69
49949;BME280;35840;45.982;8.890;2023-06-22T06:26:31;98745.91;;;23.08;69.15
49949;BME280;35840;45.982;8.890;2023-06-22T06:29:00;98746.91;;;23.15;69.59
49949;BME280;35840;45.982;8.890;2023-06-22T06:31:27;98741.50;;;23.17;68.35
49949;BME280;35840;45.982;8.890;2023-06-22T06:33:57;98738.56;;;23.20;68.28
49949;BME280;35840;45.982;8.890;2023-06-22T06:36:23;98749.03;;;23.28;68.39
49949;BME280;35840;45.982;8.890;2023-06-22T06:38:50;98747.06;;;23.38;68.78
49949;BME280;35840;45.982;8.890;2023-06-22T06:41:17;98751.66;;;23.45;69.37
49949;BME280;35840;45.982;8.890;2023-06-22T06:43:44;98738.69;;;23.43;69.24
49949;BME280;35840;45.982;8.890;2023-06-22T06:46:11;98742.44;;;23.57;69.12
49949;BME280;35840;45.982;8.890;2023-06-22T06:48:38;98731.94;;;23.65;69.11
49949;BME280;35840;45.982;8.890;2023-06-22T06:51:04;98737.81;;;23.76;68.52
49949;BME280;35840;45.982;8.890;2023-06-22T06:53:31;98725.16;;;23.79;67.38
49949;BME280;35840;45.982;8.890;2023-06-22T06:55:58;98737.16;;;23.73;66.37
49949;BME280;35840;45.982;8.890;2023-06-22T06:58:25;98755.38;;;23.75;64.41
49949;BME280;35840;45.982;8.890;2023-06-22T07:00:52;98754.88;;;23.80;67.11
49949;BME280;35840;45.982;8.890;2023-06-22T07:03:19;98754.06;;;23.79;67.49
49949;BME280;35840;45.982;8.890;2023-06-22T07:05:45;98736.66;;;23.78;67.17
49949;BME280;35840;45.982;8.890;2023-06-22T07:08:12;98746.66;;;23.83;67.78
49949;BME280;35840;45.982;8.890;2023-06-22T07:10:39;98737.63;;;23.77;66.76
49949;BME280;35840;45.982;8.890;2023-06-22T07:13:05;98736.97;;;23.83;66.14
49949;BME280;35840;45.982;8.890;2023-06-22T07:15:32;98735.16;;;23.92;68.08
49949;BME280;35840;45.982;8.890;2023-06-22T07:17:59;98740.09;;;23.95;67.18
49949;BME280;35840;45.982;8.890;2023-06-22T07:20:26;98736.81;;;23.93;67.26
49949;BME280;35840;45.982;8.890;2023-06-22T07:22:53;98734.97;;;24.02;68.62
49949;BME280;35840;45.982;8.890;2023-06-22T07:25:20;98725.88;;;24.13;69.49
49949;BME280;35840;45.982;8.890;2023-06-22T07:27:58;98731.00;;;24.14;69.60
49949;BME280;35840;45.982;8.890;2023-06-22T07:30:25;98724.38;;;24.18;70.66
49949;BME280;35840;45.982;8.890;2023-06-22T07:32:54;98719.97;;;24.19;69.54
49949;BME280;35840;45.982;8.890;2023-06-22T07:35:21;98719.63;;;24.22;68.07
49949;BME280;35840;45.982;8.890;2023-06-22T07:37:48;98715.16;;;24.22;67.57
49949;BME280;35840;45.982;8.890;2023-06-22T07:40:14;98717.59;;;24.32;68.12
49949;BME280;35840;45.982;8.890;2023-06-22T07:42:41;98711.31;;;24.41;68.70
49949;BME280;35840;45.982;8.890;2023-06-22T07:45:08;98706.00;;;24.50;69.39
49949;BME280;35840;45.982;8.890;2023-06-22T07:47:35;98701.91;;;24.47;68.39
49949;BME280;35840;45.982;8.890;2023-06-22T07:50:03;98698.16;;;24.41;67.74
49949;BME280;35840;45.982;8.890;2023-06-22T07:52:30;98700.94;;;24.48;68.83
49949;BME280;35840;45.982;8.890;2023-06-22T07:54:57;98701.19;;;24.53;69.04
49949;BME280;35840;45.982;8.890;2023-06-22T07:57:24;98678.25;;;24.47;68.56
49949;BME280;35840;45.982;8.890;2023-06-22T07:59:59;98688.72;;;24.55;69.33
49949;BME280;35840;45.982;8.890;2023-06-22T08:02:26;98667.34;;;24.58;68.06
49949;BME280;35840;45.982;8.890;2023-06-22T08:04:53;98664.84;;;24.65;67.39
49949;BME280;35840;45.982;8.890;2023-06-22T08:07:40;98672.47;;;24.75;66.43
49949;BME280;35840;45.982;8.890;2023-06-22T08:10:12;98669.69;;;24.77;65.93
49949;BME280;35840;45.982;8.890;2023-06-22T08:12:40;98685.69;;;24.90;67.41
49949;BME280;35840;45.982;8.890;2023-06-22T08:15:08;98681.72;;;24.94;66.72
49949;BME280;35840;45.982;8.890;2023-06-22T08:17:38;98682.00;;;24.99;66.44
49949;BME280;35840;45.982;8.890;2023-06-22T08:20:09;98686.16;;;24.94;65.77
49949;BME280;35840;45.982;8.890;2023-06-22T08:22:39;98684.03;;;24.89;67.06
49949;BME280;35840;45.982;8.890;2023-06-22T08:25:06;98683.88;;;24.90;63.58
49949;BME280;35840;45.982;8.890;2023-06-22T08:27:33;98683.19;;;24.97;64.61
49949;BME280;35840;45.982;8.890;2023-06-22T08:30:00;98680.63;;;25.03;63.29
49949;BME280;35840;45.982;8.890;2023-06-22T08:32:28;98678.22;;;25.17;64.85
49949;BME280;35840;45.982;8.890;2023-06-22T08:34:56;98688.38;;;25.20;63.92
49949;BME280;35840;45.982;8.890;2023-06-22T08:37:24;98693.09;;;25.24;63.61
49949;BME280;35840;45.982;8.890;2023-06-22T08:39:59;98697.19;;;25.27;64.15
49949;BME280;35840;45.982;8.890;2023-06-22T08:42:27;98691.13;;;25.26;63.31
49949;BME280;35840;45.982;8.890;2023-06-22T08:44:55;98692.41;;;25.31;63.21
49949;BME280;35840;45.982;8.890;2023-06-22T08:47:22;98687.78;;;25.33;61.52
49949;BME280;35840;45.982;8.890;2023-06-22T08:49:49;98689.53;;;25.40;59.81
49949;BME280;35840;45.982;8.890;2023-06-22T08:52:17;98686.53;;;25.43;63.87
49949;BME280;35840;45.982;8.890;2023-06-22T08:54:48;98690.72;;;25.53;61.91
49949;BME280;35840;45.982;8.890;2023-06-22T08:57:15;98691.44;;;25.61;64.81
49949;BME280;35840;45.982;8.890;2023-06-22T08:59:43;98689.72;;;25.69;63.31
49949;BME280;35840;45.982;8.890;2023-06-22T09:02:09;98682.91;;;25.74;62.54
49949;BME280;35840;45.982;8.890;2023-06-22T09:04:36;98684.63;;;25.82;64.31
49949;BME280;35840;45.982;8.890;2023-06-22T09:07:04;98675.44;;;25.78;62.21
49949;BME280;35840;45.982;8.890;2023-06-22T09:09:30;98683.63;;;25.83;61.22
49949;BME280;35840;45.982;8.890;2023-06-22T09:11:57;98681.91;;;25.90;63.04
49949;BME280;35840;45.982;8.890;2023-06-22T09:14:24;98676.88;;;25.95;61.53
49949;BME280;35840;45.982;8.890;2023-06-22T09:16:51;98674.16;;;26.04;61.40
49949;BME280;35840;45.982;8.890;2023-06-22T09:19:17;98677.06;;;26.09;60.25
49949;BME280;35840;45.982;8.890;2023-06-22T09:21:44;98667.53;;;26.08;59.79
49949;BME280;35840;45.982;8.890;2023-06-22T09:24:11;98665.41;;;26.18;60.62
49949;BME280;35840;45.982;8.890;2023-06-22T09:26:38;98664.69;;;26.24;60.65
49949;BME280;35840;45.982;8.890;2023-06-22T09:29:05;98672.28;;;26.34;58.09
49949;BME280;35840;45.982;8.890;2023-06-22T09:31:32;98674.34;;;26.39;58.48
49949;BME280;35840;45.982;8.890;2023-06-22T09:33:59;98676.50;;;26.50;57.73
49949;BME280;35840;45.982;8.890;2023-06-22T09:36:26;98671.53;;;26.62;60.06
49949;BME280;35840;45.982;8.890;2023-06-22T09:38:53;98670.97;;;26.67;58.91
49949;BME280;35840;45.982;8.890;2023-06-22T09:41:24;98661.63;;;26.64;56.98
49949;BME280;35840;45.982;8.890;2023-06-22T09:43:51;98648.97;;;26.59;55.51
49949;BME280;35840;45.982;8.890;2023-06-22T09:46:21;98654.63;;;26.71;57.40
49949;BME280;35840;45.982;8.890;2023-06-22T09:48:51;98651.53;;;26.89;58.27
49949;BME280;35840;45.982;8.890;2023-06-22T09:51:18;98651.59;;;27.03;56.88
49949;BME280;35840;45.982;8.890;2023-06-22T09:53:46;98643.75;;;27.09;53.99
49949;BME280;35840;45.982;8.890;2023-06-22T09:56:13;98638.94;;;27.20;52.10
49949;BME280;35840;45.982;8.890;2023-06-22T09:58:42;98645.22;;;27.19;55.61
49949;BME280;35840;45.982;8.890;2023-06-22T10:01:09;98633.38;;;27.08;52.78
49949;BME280;35840;45.982;8.890;2023-06-22T10:03:37;98624.88;;;27.12;55.65
49949;BME280;35840;45.982;8.890;2023-06-22T10:06:04;98622.84;;;27.14;55.52
49949;BME280;35840;45.982;8.890;2023-06-22T10:08:31;98618.25;;;27.23;56.95
49949;BME280;35840;45.982;8.890;2023-06-22T10:10:58;98617.22;;;27.24;57.25
49949;BME280;35840;45.982;8.890;2023-06-22T10:13:25;98611.34;;;27.22;55.58
49949;BME280;35840;45.982;8.890;2023-06-22T10:15:52;98612.59;;;27.26;54.15
49949;BME280;35840;45.982;8.890;2023-06-22T10:18:19;98597.50;;;27.20;52.88
49949;BME280;35840;45.982;8.890;2023-06-22T10:20:48;98603.81;;;27.19;53.24
49949;BME280;35840;45.982;8.890;2023-06-22T10:23:18;98583.75;;;27.25;57.39
49949;BME280;35840;45.982;8.890;2023-06-22T10:25:45;98584.53;;;27.25;55.92
49949;BME280;35840;45.982;8.890;2023-06-22T10:28:12;98575.22;;;27.29;55.66
49949;BME280;35840;45.982;8.890;2023-06-22T10:30:40;98574.91;;;27.39;55.57
49949;BME280;35840;45.982;8.890;2023-06-22T10:33:10;98570.47;;;27.46;53.05
49949;BME280;35840;45.982;8.890;2023-06-22T10:35:37;98560.50;;;27.42;51.74
49949;BME280;35840;45.982;8.890;2023-06-22T10:38:05;98573.31;;;27.45;52.11
49949;BME280;35840;45.982;8.890;2023-06-22T10:40:32;98567.22;;;27.51;54.05
49949;BME280;35840;45.982;8.890;2023-06-22T10:43:00;98557.09;;;27.61;56.46
49949;BME280;35840;45.982;8.890;2023-06-22T10:45:26;98554.69;;;27.80;58.12
49949;BME280;35840;45.982;8.890;2023-06-22T10:47:55;98553.94;;;27.86;55.39
49949;BME280;35840;45.982;8.890;2023-06-22T10:50:21;98550.53;;;27.99;56.61
49949;BME280;35840;45.982;8.890;2023-06-22T10:52:50;98544.63;;;28.04;58.06
49949;BME280;35840;45.982;8.890;2023-06-22T10:55:17;98544.22;;;28.07;55.74
49949;BME280;35840;45.982;8.890;2023-06-22T10:57:44;98531.34;;;27.97;52.23
49949;BME280;35840;45.982;8.890;2023-06-22T11:00:14;98530.16;;;27.86;50.82
49949;BME280;35840;45.982;8.890;2023-06-22T11:02:43;98532.34;;;27.82;50.79
49949;BME280;35840;45.982;8.890;2023-06-22T11:05:11;98528.88;;;27.75;50.26
49949;BME280;35840;45.982;8.890;2023-06-22T11:07:41;98523.88;;;28.00;54.99
49949;BME280;35840;45.982;8.890;2023-06-22T11:10:12;98522.28;;;28.06;52.55
49949;BME280;35840;45.982;8.890;2023-06-22T11:12:39;98514.94;;;28.08;50.92
49949;BME280;35840;45.982;8.890;2023-06-22T11:15:06;98510.88;;;28.19;51.54
49949;BME280;35840;45.982;8.890;2023-06-22T11:17:34;98508.03;;;28.27;52.32
49949;BME280;35840;45.982;8.890;2023-06-22T11:20:01;98505.19;;;28.49;53.48
49949;BME280;35840;45.982;8.890;2023-06-22T11:22:30;98484.00;;;28.49;54.31
49949;BME280;35840;45.982;8.890;2023-06-22T11:25:00;98499.06;;;28.62;50.80
49949;BME280;35840;45.982;8.890;2023-06-22T11:27:27;98495.22;;;28.64;49.13
49949;BME280;35840;45.982;8.890;2023-06-22T11:29:54;98500.09;;;28.61;48.78
49949;BME280;35840;45.982;8.890;2023-06-22T11:32:21;98493.16;;;28.60;47.62
49949;BME280;35840;45.982;8.890;2023-06-22T11:34:48;98489.72;;;28.66;49.59
49949;BME280;35840;45.982;8.890;2023-06-22T11:37:14;98479.75;;;28.68;46.01
49949;BME280;35840;45.982;8.890;2023-06-22T11:39:42;98479.75;;;28.68;45.27
49949;BME280;35840;45.982;8.890;2023-06-22T11:42:13;98474.63;;;28.73;45.46
49949;BME280;35840;45.982;8.890;2023-06-22T11:44:40;98473.41;;;28.82;48.28
49949;BME280;35840;45.982;8.890;2023-06-22T11:47:06;98478.84;;;28.94;43.67
49949;BME280;35840;45.982;8.890;2023-06-22T11:49:33;98475.19;;;28.95;44.34
49949;BME280;35840;45.982;8.890;2023-06-22T11:52:00;98459.53;;;28.94;46.72
49949;BME280;35840;45.982;8.890;2023-06-22T11:54:27;98464.38;;;29.03;43.90
49949;BME280;35840;45.982;8.890;2023-06-22T11:56:54;98462.94;;;29.01;45.90
49949;BME280;35840;45.982;8.890;2023-06-22T11:59:20;98471.31;;;28.98;45.36
49949;BME280;35840;45.982;8.890;2023-06-22T12:01:48;98468.03;;;28.96;42.71
49949;BME280;35840;45.982;8.890;2023-06-22T12:04:17;98479.47;;;28.96;45.13
49949;BME280;35840;45.982;8.890;2023-06-22T12:06:44;98475.19;;;28.95;43.46
49949;BME280;35840;45.982;8.890;2023-06-22T12:09:11;98472.91;;;28.99;44.17
49949;BME280;35840;45.982;8.890;2023-06-22T12:11:40;98469.47;;;29.05;45.43
49949;BME280;35840;45.982;8.890;2023-06-22T12:14:07;98473.66;;;29.19;45.59
49949;BME280;35840;45.982;8.890;2023-06-22T12:16:34;98469.50;;;29.44;46.30
49949;BME280;35840;45.982;8.890;2023-06-22T12:19:01;98464.53;;;29.54;44.50
49949;BME280;35840;45.982;8.890;2023-06-22T12:21:27;98468.16;;;29.60;45.14
49949;BME280;35840;45.982;8.890;2023-06-22T12:23:55;98470.25;;;29.58;46.04
49949;BME280;35840;45.982;8.890;2023-06-22T12:26:22;98479.63;;;29.53;46.58
49949;BME280;35840;45.982;8.890;2023-06-22T12:28:49;98471.69;;;29.53;44.69
49949;BME280;35840;45.982;8.890;2023-06-22T12:31:16;98472.28;;;29.56;47.97
49949;BME280;35840;45.982;8.890;2023-06-22T12:33:43;98475.69;;;29.63;44.00
49949;BME280;35840;45.982;8.890;2023-06-22T12:36:10;98468.59;;;29.57;43.64
49949;BME280;35840;45.982;8.890;2023-06-22T12:38:37;98470.19;;;29.64;46.78
49949;BME280;35840;45.982;8.890;2023-06-22T12:41:04;98463.06;;;29.65;46.76
49949;BME280;35840;45.982;8.890;2023-06-22T12:43:31;98460.78;;;29.68;45.17
49949;BME280;35840;45.982;8.890;2023-06-22T12:45:58;98464.91;;;29.64;46.49
49949;BME280;35840;45.982;8.890;2023-06-22T12:48:26;98457.56;;;29.60;47.15
49949;BME280;35840;45.982;8.890;2023-06-22T12:50:54;98468.03;;;29.54;46.20
49949;BME280;35840;45.982;8.890;2023-06-22T12:53:21;98473.31;;;29.54;45.20
49949;BME280;35840;45.982;8.890;2023-06-22T12:55:50;98475.75;;;29.56;49.33
49949;BME280;35840;45.982;8.890;2023-06-22T12:58:17;98477.41;;;29.50;45.84
49949;BME280;35840;45.982;8.890;2023-06-22T13:00:43;98472.94;;;29.44;45.63
49949;BME280;35840;45.982;8.890;2023-06-22T13:03:10;98467.88;;;29.43;44.93
49949;BME280;35840;45.982;8.890;2023-06-22T13:05:38;98460.31;;;29.46;44.34
49949;BME280;35840;45.982;8.890;2023-06-22T13:08:05;98457.03;;;29.51;47.83
49949;BME280;35840;45.982;8.890;2023-06-22T13:10:32;98447.91;;;29.40;44.54
49949;BME280;35840;45.982;8.890;2023-06-22T13:12:59;98451.19;;;29.35;44.96
49949;BME280;35840;45.982;8.890;2023-06-22T13:15:28;98434.31;;;29.30;46.17